Weather History for La Porte, IN

Change the Weather History Date:

Sunday, November 10, 2013

  Actual Average (KVPZ) Record (KVPZ)
Temperature  
Mean Temperature 38 °F 44 °F  
Max Temperature 45 °F 52 °F 72 °F (2012)
Min Temperature 32 °F 35 °F 23 °F (2003)
Degree Days  
Heating Degree Days 26 22  
Month to date heating degree days 197  
Since 1 July heating degree days 727  
Cooling Degree Days 0 0  
Month to date cooling degree days 0  
Year to date cooling degree days 713  
Moisture  
Dew Point 28 °F    
Average Humidity 65    
Maximum Humidity 88    
Minimum Humidity 48    
Precipitation  
Precipitation 0.00 in 0.11 in 0.58 in (1998)
Month to date precipitation 1.25  
Year to date precipitation 33.25  
Sea Level Pressure  
Sea Level Pressure 30.25 in    
Wind  
Wind Speed 10 mph (WNW)    
Max Wind Speed 16 mph    
Max Gust Speed 32 mph    
Visibility 10 miles    
Events      
T = Trace of Precipitation, MM = Missing Value Source: NWS Daily Summary

Daily Weather History Graph

Daily Weather History Graph

Search for Another Location

Airport:

Trip Planner

Search our weather history database for the weather conditions in past years. The results will help you decide how hot, cold, wet, or windy it might be!

Date:

Astronomy

Nov. 10, 2013 Rise Set
Actual Time 6:30 AM CST 4:31 PM CST
Civil Twilight 6:00 AM CST 5:00 PM CST
Nautical Twilight 5:27 AM CST 5:33 PM CST
Astronomical Twilight 4:54 AM CST 6:06 PM CST
Moon 12:41 PM CST (11/10) No Moon Set
Length of Visible Light 11h 00m
Length of Day
10h 01m
First Quarter, 56% of the Moon is Illuminated
Nov 10
First Quarter
Nov 17
Full
Nov 25
Last Quarter
Dec 2
New
Dec 9
First Quarter

Hourly Weather History & Observations

Time (CST) Temp. Windchill Dew Point Humidity Pressure Visibility Wind Dir Wind Speed Gust Speed Precip Events Conditions
12:15 AM 42.1 °F 34.5 °F 24.8 °F 50% 30.08 in 10.0 mi West 15.0 mph 28.8 mph N/A   Clear
12:35 AM 41.5 °F 34.6 °F 24.6 °F 51% 30.08 in 10.0 mi WNW 12.7 mph 29.9 mph N/A   Clear
12:55 AM 41.0 °F 33.5 °F 22.6 °F 48% 30.08 in 10.0 mi WNW 13.8 mph 28.8 mph N/A   Scattered Clouds
1:15 AM 40.3 °F 33.0 °F 22.6 °F 49% 30.08 in 10.0 mi WNW 12.7 mph 32.2 mph N/A   Scattered Clouds
1:35 AM 40.3 °F 31.9 °F 22.6 °F 49% 30.09 in 10.0 mi WNW 16.1 mph 24.2 mph N/A   Scattered Clouds
1:55 AM 40.3 °F 34.4 °F 22.6 °F 49% 30.10 in 10.0 mi WNW 9.2 mph 20.7 mph N/A   Mostly Cloudy
2:15 AM 40.3 °F 33.4 °F 23.2 °F 51% 30.11 in 10.0 mi WNW 11.5 mph 20.7 mph N/A   Overcast
2:35 AM 40.6 °F 33.8 °F 23.9 °F 51% 30.11 in 10.0 mi WNW 11.5 mph 23.0 mph N/A   Overcast
2:55 AM 40.5 °F 32.5 °F 24.4 °F 53% 30.12 in 10.0 mi NW 15.0 mph 20.7 mph N/A   Overcast
3:15 AM 39.7 °F 32.7 °F 24.8 °F 55% 30.13 in 10.0 mi WNW 11.5 mph 19.6 mph N/A   Mostly Cloudy
3:35 AM 39.2 °F 32.0 °F 25.5 °F 58% 30.13 in 10.0 mi WNW 11.5 mph 23.0 mph N/A   Scattered Clouds
3:55 AM 38.3 °F 30.9 °F 26.4 °F 62% 30.14 in 10.0 mi WNW 11.5 mph 23.0 mph N/A   Scattered Clouds
4:15 AM 38.5 °F 29.9 °F 27.0 °F 63% 30.14 in 10.0 mi WNW 15.0 mph 24.2 mph N/A   Clear
4:35 AM 38.5 °F 31.1 °F 27.3 °F 64% 30.16 in 10.0 mi NW 11.5 mph 21.9 mph N/A   Scattered Clouds
4:55 AM 38.1 °F 31.7 °F 27.5 °F 66% 30.16 in 10.0 mi WNW 9.2 mph 19.6 mph N/A   Scattered Clouds
5:15 AM 37.8 °F 30.7 °F 27.5 °F 67% 30.18 in 10.0 mi WNW 10.4 mph 16.1 mph N/A   Scattered Clouds
5:35 AM 37.6 °F 31.6 °F 27.5 °F 67% 30.18 in 10.0 mi WNW 8.1 mph 17.3 mph N/A   Scattered Clouds
5:55 AM 37.8 °F 30.2 °F 27.9 °F 67% 30.19 in 10.0 mi WNW 11.5 mph 19.6 mph N/A   Scattered Clouds
6:15 AM 38.3 °F 30.1 °F 27.3 °F 65% 30.20 in 10.0 mi NW 13.8 mph 21.9 mph N/A   Mostly Cloudy
6:35 AM 37.9 °F 29.2 °F 27.5 °F 66% 30.21 in 10.0 mi NW 15.0 mph 26.5 mph N/A   Mostly Cloudy
6:55 AM 38.3 °F 32.5 °F 28.0 °F 67% 30.22 in 10.0 mi WNW 8.1 mph 23.0 mph N/A   Mostly Cloudy
7:15 AM 38.5 °F 30.3 °F 28.0 °F 66% 30.23 in 10.0 mi NW 13.8 mph 23.0 mph N/A   Overcast
7:35 AM 38.8 °F 30.8 °F 28.2 °F 66% 30.24 in 10.0 mi NW 13.8 mph 21.9 mph N/A   Overcast
7:55 AM 38.8 °F 33.8 °F 28.4 °F 66% 30.26 in 10.0 mi WNW 6.9 mph 19.6 mph N/A   Overcast
8:15 AM 39.6 °F 32.1 °F 29.3 °F 67% 30.26 in 10.0 mi NW 12.7 mph 19.6 mph N/A   Overcast
8:35 AM 40.1 °F 32.7 °F 29.3 °F 65% 30.27 in 10.0 mi NW 12.7 mph 18.4 mph N/A   Mostly Cloudy
8:55 AM 40.1 °F 34.1 °F 29.3 °F 65% 30.28 in 10.0 mi NW 9.2 mph 20.7 mph N/A   Overcast
9:15 AM 41.2 °F 33.4 °F 30.0 °F 65% 30.29 in 10.0 mi NW 15.0 mph 23.0 mph N/A   Overcast
9:35 AM 41.2 °F 33.7 °F 29.8 °F 64% 30.30 in 10.0 mi NW 13.8 mph 19.6 mph N/A   Overcast
9:55 AM 41.4 °F 33.3 °F 28.9 °F 61% 30.31 in 10.0 mi NW 16.1 mph 23.0 mph N/A   Overcast
10:15 AM 41.9 °F 34.6 °F 29.5 °F 61% 30.31 in 10.0 mi NW 13.8 mph 20.7 mph N/A   Overcast
10:35 AM 41.9 °F 35.4 °F 29.5 °F 61% 30.32 in 10.0 mi NW 11.5 mph 21.9 mph N/A   Overcast
10:55 AM 41.9 °F 34.3 °F 29.8 °F 62% 30.32 in 10.0 mi NW 15.0 mph 20.7 mph N/A   Overcast
11:15 AM 41.9 °F 35.0 °F 30.0 °F 63% 30.32 in 10.0 mi NW 12.7 mph - N/A   Overcast
11:35 AM 42.4 °F 35.7 °F 30.0 °F 61% 30.31 in 10.0 mi NW 12.7 mph 16.1 mph N/A   Overcast
11:55 AM 42.6 °F 36.8 °F 30.7 °F 63% 30.31 in 10.0 mi NNW 10.4 mph 16.1 mph N/A   Overcast
12:15 PM 42.6 °F 37.2 °F 29.5 °F 60% 30.31 in 10.0 mi WNW 9.2 mph - N/A   Mostly Cloudy
12:35 PM 44.8 °F 39.0 °F 30.7 °F 58% 30.31 in 10.0 mi NW 11.5 mph 17.3 mph N/A   Mostly Cloudy
12:55 PM 45.0 °F 39.3 °F 30.6 °F 57% 30.31 in 10.0 mi NNW 11.5 mph 19.6 mph N/A   Mostly Cloudy
1:15 PM 45.1 °F 39.1 °F 30.4 °F 56% 30.31 in 10.0 mi NNW 12.7 mph - N/A   Scattered Clouds
1:35 PM 44.4 °F 40.5 °F 30.2 °F 57% 30.31 in 10.0 mi WNW 6.9 mph 16.1 mph N/A   Scattered Clouds
1:55 PM 44.4 °F 42.0 °F 29.5 °F 56% 30.31 in 10.0 mi NNW 4.6 mph - N/A   Scattered Clouds
2:15 PM 44.6 °F 40.7 °F 30.0 °F 57% 30.31 in 10.0 mi NW 6.9 mph - N/A   Clear
2:35 PM 44.2 °F 41.0 °F 29.1 °F 55% 30.31 in 10.0 mi WNW 5.8 mph - N/A   Clear
2:55 PM 44.2 °F 40.3 °F 28.8 °F 55% 30.31 in 10.0 mi NW 6.9 mph - N/A   Clear
3:15 PM 43.7 °F 39.1 °F 28.4 °F 55% 30.31 in 10.0 mi NW 8.1 mph - N/A   Clear
3:35 PM 43.7 °F 40.3 °F 28.8 °F 56% 30.31 in 10.0 mi WNW 5.8 mph - N/A   Clear
3:55 PM 43.0 °F - 28.2 °F 56% 30.31 in 10.0 mi Calm Calm - N/A   Clear
4:15 PM 41.4 °F - 28.4 °F 60% 30.32 in 10.0 mi Calm Calm - N/A   Clear
4:35 PM 39.4 °F - 28.4 °F 65% 30.32 in 10.0 mi Calm Calm - N/A   Clear
4:55 PM 38.5 °F - 28.0 °F 66% 30.31 in 10.0 mi Calm Calm - N/A   Clear
5:15 PM 34.9 °F - 29.5 °F 81% 30.30 in 10.0 mi Calm Calm - N/A   Clear
5:35 PM 35.8 °F - 28.6 °F 75% 30.31 in 10.0 mi Calm Calm - N/A   Clear
5:55 PM 33.6 °F - 28.6 °F 82% 30.31 in 10.0 mi Calm Calm - N/A   Clear
6:15 PM 32.4 °F - 27.5 °F 82% 30.30 in 10.0 mi Calm Calm - N/A   Clear
6:35 PM 32.2 °F - 28.6 °F 87% 30.30 in 10.0 mi Calm Calm - N/A   Clear
6:55 PM 33.3 °F 30.2 °F 27.5 °F 79% 30.29 in 10.0 mi South 3.5 mph - N/A   Scattered Clouds
7:15 PM 33.4 °F - 27.1 °F 78% 30.28 in 10.0 mi Calm Calm - N/A   Scattered Clouds
7:35 PM 34.0 °F - 28.0 °F 79% 30.28 in 10.0 mi Calm Calm - N/A   Scattered Clouds
7:55 PM 32.4 °F 27.9 °F 26.4 °F 79% 30.29 in 10.0 mi WSW 4.6 mph - N/A   Mostly Cloudy
8:15 PM 32.0 °F 28.7 °F 28.8 °F 88% 30.29 in 10.0 mi WSW 3.5 mph - N/A   Overcast
8:35 PM 34.3 °F 29.2 °F 29.3 °F 82% 30.29 in 10.0 mi SW 5.8 mph - N/A   Overcast
8:55 PM 36.1 °F 32.3 °F 29.8 °F 78% 30.29 in 10.0 mi SW 4.6 mph - N/A   Overcast
9:15 PM 37.0 °F 33.3 °F 30.2 °F 76% 30.28 in 10.0 mi SW 4.6 mph - N/A   Overcast
9:35 PM 37.4 °F 33.8 °F 30.7 °F 77% 30.28 in 10.0 mi SW 4.6 mph - N/A   Overcast
9:55 PM 37.9 °F 33.5 °F 30.9 °F 76% 30.26 in 10.0 mi WSW 5.8 mph - N/A   Overcast
10:15 PM 38.5 °F 33.4 °F 30.9 °F 74% 30.26 in 10.0 mi SW 6.9 mph - N/A   Overcast
10:35 PM 38.5 °F 34.1 °F 31.1 °F 75% 30.25 in 10.0 mi SW 5.8 mph - N/A   Mostly Cloudy
10:55 PM 38.5 °F 34.1 °F 30.7 °F 74% 30.25 in 10.0 mi SW 5.8 mph - N/A   Overcast
11:15 PM 38.7 °F 35.2 °F 30.9 °F 74% 30.24 in 10.0 mi SSW 4.6 mph - N/A   Overcast
11:35 PM 38.5 °F 36.1 °F 31.1 °F 75% 30.24 in 10.0 mi SSW 3.5 mph - N/A   Overcast
11:55 PM 38.7 °F 33.6 °F 31.1 °F 74% 30.23 in 10.0 mi SSW 6.9 mph - N/A   Overcast